sensor_id;sensor_type;location;lat;lon;timestamp;P1;durP1;ratioP1;P2;durP2;ratioP2
3733;SDS011;1882;52.256;8.874;2023-10-13T00:00:41;75.90;;;32.40;;
3733;SDS011;1882;52.256;8.874;2023-10-13T00:03:12;70.03;;;32.73;;
3733;SDS011;1882;52.256;8.874;2023-10-13T00:05:42;64.63;;;31.23;;
3733;SDS011;1882;52.256;8.874;2023-10-13T00:08:10;63.73;;;31.43;;
3733;SDS011;1882;52.256;8.874;2023-10-13T00:10:38;61.30;;;30.83;;
3733;SDS011;1882;52.256;8.874;2023-10-13T00:13:14;59.60;;;30.17;;
3733;SDS011;1882;52.256;8.874;2023-10-13T00:15:46;60.83;;;31.30;;
3733;SDS011;1882;52.256;8.874;2023-10-13T00:24:08;62.73;;;31.87;;
3733;SDS011;1882;52.256;8.874;2023-10-13T00:26:38;60.67;;;30.43;;
3733;SDS011;1882;52.256;8.874;2023-10-13T00:29:17;60.90;;;31.67;;
3733;SDS011;1882;52.256;8.874;2023-10-13T00:31:44;60.93;;;31.07;;
3733;SDS011;1882;52.256;8.874;2023-10-13T00:34:21;63.60;;;32.00;;
3733;SDS011;1882;52.256;8.874;2023-10-13T00:36:54;59.50;;;31.30;;
3733;SDS011;1882;52.256;8.874;2023-10-13T00:39:54;54.47;;;30.63;;
3733;SDS011;1882;52.256;8.874;2023-10-13T00:42:36;61.90;;;29.03;;
3733;SDS011;1882;52.256;8.874;2023-10-13T00:45:29;58.50;;;29.93;;
3733;SDS011;1882;52.256;8.874;2023-10-13T00:48:04;59.87;;;31.50;;
3733;SDS011;1882;52.256;8.874;2023-10-13T00:50:48;57.10;;;31.30;;
3733;SDS011;1882;52.256;8.874;2023-10-13T00:53:15;53.80;;;29.97;;
3733;SDS011;1882;52.256;8.874;2023-10-13T00:55:44;57.73;;;30.47;;
3733;SDS011;1882;52.256;8.874;2023-10-13T00:58:17;56.23;;;31.00;;
3733;SDS011;1882;52.256;8.874;2023-10-13T01:00:49;62.20;;;31.03;;
3733;SDS011;1882;52.256;8.874;2023-10-13T01:03:31;59.63;;;29.47;;
3733;SDS011;1882;52.256;8.874;2023-10-13T01:06:31;58.87;;;30.00;;
3733;SDS011;1882;52.256;8.874;2023-10-13T01:09:02;56.13;;;30.10;;
3733;SDS011;1882;52.256;8.874;2023-10-13T01:12:36;58.00;;;30.77;;
3733;SDS011;1882;52.256;8.874;2023-10-13T01:15:03;57.20;;;30.57;;
3733;SDS011;1882;52.256;8.874;2023-10-13T01:17:35;61.93;;;31.43;;
3733;SDS011;1882;52.256;8.874;2023-10-13T01:20:09;50.80;;;29.33;;
3733;SDS011;1882;52.256;8.874;2023-10-13T01:22:40;52.30;;;29.97;;
3733;SDS011;1882;52.256;8.874;2023-10-13T01:25:08;50.77;;;30.13;;
3733;SDS011;1882;52.256;8.874;2023-10-13T01:27:40;57.33;;;31.03;;
3733;SDS011;1882;52.256;8.874;2023-10-13T01:30:08;52.00;;;29.20;;
3733;SDS011;1882;52.256;8.874;2023-10-13T01:33:02;59.10;;;31.23;;
3733;SDS011;1882;52.256;8.874;2023-10-13T01:35:37;51.70;;;29.90;;
3733;SDS011;1882;52.256;8.874;2023-10-13T01:38:17;54.80;;;30.40;;
3733;SDS011;1882;52.256;8.874;2023-10-13T01:40:43;52.80;;;29.83;;
3733;SDS011;1882;52.256;8.874;2023-10-13T01:43:10;52.27;;;28.50;;
3733;SDS011;1882;52.256;8.874;2023-10-13T01:45:37;49.00;;;29.57;;
3733;SDS011;1882;52.256;8.874;2023-10-13T01:48:16;50.50;;;28.97;;
3733;SDS011;1882;52.256;8.874;2023-10-13T01:50:45;49.00;;;29.03;;
3733;SDS011;1882;52.256;8.874;2023-10-13T01:53:15;49.20;;;28.33;;
3733;SDS011;1882;52.256;8.874;2023-10-13T01:55:44;59.27;;;29.20;;
3733;SDS011;1882;52.256;8.874;2023-10-13T01:58:11;52.37;;;28.67;;
3733;SDS011;1882;52.256;8.874;2023-10-13T02:00:49;50.97;;;28.70;;
3733;SDS011;1882;52.256;8.874;2023-10-13T02:03:15;49.00;;;27.77;;
3733;SDS011;1882;52.256;8.874;2023-10-13T02:05:43;46.60;;;28.13;;
3733;SDS011;1882;52.256;8.874;2023-10-13T02:08:24;44.63;;;26.00;;
3733;SDS011;1882;52.256;8.874;2023-10-13T02:10:53;42.57;;;26.57;;
3733;SDS011;1882;52.256;8.874;2023-10-13T02:13:27;45.97;;;25.20;;
3733;SDS011;1882;52.256;8.874;2023-10-13T02:15:57;42.90;;;25.90;;
3733;SDS011;1882;52.256;8.874;2023-10-13T02:18:24;49.00;;;27.80;;
3733;SDS011;1882;52.256;8.874;2023-10-13T02:21:01;39.67;;;24.80;;
3733;SDS011;1882;52.256;8.874;2023-10-13T02:23:30;41.87;;;25.70;;
3733;SDS011;1882;52.256;8.874;2023-10-13T02:28:51;41.30;;;24.73;;
3733;SDS011;1882;52.256;8.874;2023-10-13T02:31:22;46.20;;;24.83;;
3733;SDS011;1882;52.256;8.874;2023-10-13T02:36:45;37.23;;;23.20;;
3733;SDS011;1882;52.256;8.874;2023-10-13T02:39:18;38.33;;;23.13;;
3733;SDS011;1882;52.256;8.874;2023-10-13T02:41:54;38.80;;;23.80;;
3733;SDS011;1882;52.256;8.874;2023-10-13T02:44:22;38.00;;;23.00;;
3733;SDS011;1882;52.256;8.874;2023-10-13T02:47:04;40.63;;;22.57;;
3733;SDS011;1882;52.256;8.874;2023-10-13T02:49:40;39.93;;;22.83;;
3733;SDS011;1882;52.256;8.874;2023-10-13T02:52:12;36.73;;;22.10;;
3733;SDS011;1882;52.256;8.874;2023-10-13T02:54:39;38.63;;;20.10;;
3733;SDS011;1882;52.256;8.874;2023-10-13T02:57:12;38.57;;;22.93;;
3733;SDS011;1882;52.256;8.874;2023-10-13T02:59:42;33.50;;;21.90;;
3733;SDS011;1882;52.256;8.874;2023-10-13T03:02:38;42.70;;;23.07;;
3733;SDS011;1882;52.256;8.874;2023-10-13T03:05:34;36.97;;;21.37;;
3733;SDS011;1882;52.256;8.874;2023-10-13T03:08:01;34.60;;;21.30;;
3733;SDS011;1882;52.256;8.874;2023-10-13T03:10:37;37.67;;;22.60;;
3733;SDS011;1882;52.256;8.874;2023-10-13T03:13:16;39.80;;;22.47;;
3733;SDS011;1882;52.256;8.874;2023-10-13T03:15:44;42.37;;;22.57;;
3733;SDS011;1882;52.256;8.874;2023-10-13T03:18:14;38.80;;;23.07;;
3733;SDS011;1882;52.256;8.874;2023-10-13T03:20:49;46.50;;;22.87;;
3733;SDS011;1882;52.256;8.874;2023-10-13T03:23:24;35.00;;;22.20;;
3733;SDS011;1882;52.256;8.874;2023-10-13T03:25:54;34.40;;;19.70;;
3733;SDS011;1882;52.256;8.874;2023-10-13T03:28:22;39.77;;;20.33;;
3733;SDS011;1882;52.256;8.874;2023-10-13T03:30:52;33.37;;;19.30;;
3733;SDS011;1882;52.256;8.874;2023-10-13T03:33:25;34.33;;;19.43;;
3733;SDS011;1882;52.256;8.874;2023-10-13T03:35:52;32.37;;;19.80;;
3733;SDS011;1882;52.256;8.874;2023-10-13T03:38:20;36.13;;;20.97;;
3733;SDS011;1882;52.256;8.874;2023-10-13T03:40:53;32.00;;;20.93;;
3733;SDS011;1882;52.256;8.874;2023-10-13T03:43:23;31.53;;;19.53;;
3733;SDS011;1882;52.256;8.874;2023-10-13T03:45:50;36.57;;;19.20;;
3733;SDS011;1882;52.256;8.874;2023-10-13T03:48:34;35.30;;;20.50;;
3733;SDS011;1882;52.256;8.874;2023-10-13T03:51:18;38.23;;;18.97;;
3733;SDS011;1882;52.256;8.874;2023-10-13T03:59:46;35.83;;;19.43;;
3733;SDS011;1882;52.256;8.874;2023-10-13T04:02:18;32.93;;;19.63;;
3733;SDS011;1882;52.256;8.874;2023-10-13T04:04:50;31.87;;;19.77;;
3733;SDS011;1882;52.256;8.874;2023-10-13T04:07:21;38.00;;;19.40;;
3733;SDS011;1882;52.256;8.874;2023-10-13T04:10:06;37.57;;;19.47;;
3733;SDS011;1882;52.256;8.874;2023-10-13T04:17:09;29.73;;;17.60;;
3733;SDS011;1882;52.256;8.874;2023-10-13T04:19:43;33.73;;;19.30;;
3733;SDS011;1882;52.256;8.874;2023-10-13T04:25:29;28.43;;;16.87;;
3733;SDS011;1882;52.256;8.874;2023-10-13T04:28:28;31.90;;;18.50;;
3733;SDS011;1882;52.256;8.874;2023-10-13T04:31:28;25.70;;;17.60;;
3733;SDS011;1882;52.256;8.874;2023-10-13T04:34:14;28.63;;;16.80;;
3733;SDS011;1882;52.256;8.874;2023-10-13T04:36:46;27.23;;;16.20;;
3733;SDS011;1882;52.256;8.874;2023-10-13T04:39:23;31.90;;;18.80;;
3733;SDS011;1882;52.256;8.874;2023-10-13T04:42:10;30.60;;;18.40;;
3733;SDS011;1882;52.256;8.874;2023-10-13T04:45:12;29.20;;;17.97;;
3733;SDS011;1882;52.256;8.874;2023-10-13T04:48:05;26.87;;;17.27;;
3733;SDS011;1882;52.256;8.874;2023-10-13T04:54:46;33.70;;;19.07;;
3733;SDS011;1882;52.256;8.874;2023-10-13T04:57:33;34.13;;;17.60;;
3733;SDS011;1882;52.256;8.874;2023-10-13T05:04:26;30.73;;;17.77;;
3733;SDS011;1882;52.256;8.874;2023-10-13T05:07:28;27.83;;;17.30;;
3733;SDS011;1882;52.256;8.874;2023-10-13T05:10:13;26.47;;;17.90;;
3733;SDS011;1882;52.256;8.874;2023-10-13T05:13:16;30.23;;;18.30;;
3733;SDS011;1882;52.256;8.874;2023-10-13T05:16:01;30.57;;;17.77;;
3733;SDS011;1882;52.256;8.874;2023-10-13T05:18:49;34.03;;;18.13;;
3733;SDS011;1882;52.256;8.874;2023-10-13T05:21:34;29.70;;;18.00;;
3733;SDS011;1882;52.256;8.874;2023-10-13T05:28:15;30.03;;;17.43;;
3733;SDS011;1882;52.256;8.874;2023-10-13T05:31:39;32.93;;;18.20;;
3733;SDS011;1882;52.256;8.874;2023-10-13T05:34:48;29.47;;;17.50;;
3733;SDS011;1882;52.256;8.874;2023-10-13T05:37:33;27.13;;;16.63;;
3733;SDS011;1882;52.256;8.874;2023-10-13T05:40:58;27.47;;;16.30;;
3733;SDS011;1882;52.256;8.874;2023-10-13T05:43:54;27.80;;;16.10;;
3733;SDS011;1882;52.256;8.874;2023-10-13T05:46:42;25.97;;;14.10;;
3733;SDS011;1882;52.256;8.874;2023-10-13T05:49:26;30.90;;;14.73;;
3733;SDS011;1882;52.256;8.874;2023-10-13T05:53:14;22.50;;;13.80;;
3733;SDS011;1882;52.256;8.874;2023-10-13T05:55:40;22.83;;;14.27;;
3733;SDS011;1882;52.256;8.874;2023-10-13T05:58:26;17.63;;;12.43;;
3733;SDS011;1882;52.256;8.874;2023-10-13T06:01:25;17.43;;;10.73;;
3733;SDS011;1882;52.256;8.874;2023-10-13T06:04:11;16.40;;;10.70;;
3733;SDS011;1882;52.256;8.874;2023-10-13T06:07:20;18.47;;;10.73;;
3733;SDS011;1882;52.256;8.874;2023-10-13T06:10:15;14.80;;;10.10;;
3733;SDS011;1882;52.256;8.874;2023-10-13T06:13:05;14.30;;;9.40;;
3733;SDS011;1882;52.256;8.874;2023-10-13T06:15:52;18.77;;;10.03;;
3733;SDS011;1882;52.256;8.874;2023-10-13T06:23:18;16.83;;;9.40;;
3733;SDS011;1882;52.256;8.874;2023-10-13T06:26:20;13.43;;;9.43;;
3733;SDS011;1882;52.256;8.874;2023-10-13T06:29:06;15.10;;;9.63;;
3733;SDS011;1882;52.256;8.874;2023-10-13T06:31:34;14.00;;;9.00;;
3733;SDS011;1882;52.256;8.874;2023-10-13T06:34:17;15.97;;;9.30;;
3733;SDS011;1882;52.256;8.874;2023-10-13T06:38:06;11.37;;;8.53;;
3733;SDS011;1882;52.256;8.874;2023-10-13T06:40:47;12.90;;;9.10;;
3733;SDS011;1882;52.256;8.874;2023-10-13T06:43:21;13.83;;;8.83;;
3733;SDS011;1882;52.256;8.874;2023-10-13T06:45:53;17.23;;;8.37;;
3733;SDS011;1882;52.256;8.874;2023-10-13T06:48:56;13.60;;;8.70;;
3733;SDS011;1882;52.256;8.874;2023-10-13T06:51:35;13.97;;;8.30;;
3733;SDS011;1882;52.256;8.874;2023-10-13T06:54:07;11.70;;;8.57;;
3733;SDS011;1882;52.256;8.874;2023-10-13T06:59:52;11.17;;;8.20;;
3733;SDS011;1882;52.256;8.874;2023-10-13T07:02:20;13.97;;;9.17;;
3733;SDS011;1882;52.256;8.874;2023-10-13T07:05:04;14.33;;;8.60;;
3733;SDS011;1882;52.256;8.874;2023-10-13T07:08:04;12.70;;;8.70;;
3733;SDS011;1882;52.256;8.874;2023-10-13T07:10:51;14.83;;;8.33;;
3733;SDS011;1882;52.256;8.874;2023-10-13T07:13:35;15.30;;;8.73;;
3733;SDS011;1882;52.256;8.874;2023-10-13T07:17:43;17.07;;;9.50;;
3733;SDS011;1882;52.256;8.874;2023-10-13T07:23:11;12.40;;;8.07;;
3733;SDS011;1882;52.256;8.874;2023-10-13T07:25:52;14.90;;;9.03;;
3733;SDS011;1882;52.256;8.874;2023-10-13T07:31:22;14.23;;;8.70;;
3733;SDS011;1882;52.256;8.874;2023-10-13T07:33:56;13.27;;;7.87;;
3733;SDS011;1882;52.256;8.874;2023-10-13T07:39:37;15.03;;;8.10;;
3733;SDS011;1882;52.256;8.874;2023-10-13T07:42:09;16.43;;;8.23;;
3733;SDS011;1882;52.256;8.874;2023-10-13T07:44:58;14.40;;;6.90;;
3733;SDS011;1882;52.256;8.874;2023-10-13T07:47:25;13.47;;;7.40;;
3733;SDS011;1882;52.256;8.874;2023-10-13T07:50:39;13.30;;;7.67;;
3733;SDS011;1882;52.256;8.874;2023-10-13T07:53:07;12.57;;;7.10;;
3733;SDS011;1882;52.256;8.874;2023-10-13T07:55:52;12.63;;;7.17;;
3733;SDS011;1882;52.256;8.874;2023-10-13T07:58:23;14.23;;;6.83;;
3733;SDS011;1882;52.256;8.874;2023-10-13T08:01:23;10.30;;;6.90;;
3733;SDS011;1882;52.256;8.874;2023-10-13T08:03:51;8.83;;;6.27;;
3733;SDS011;1882;52.256;8.874;2023-10-13T08:06:37;15.87;;;6.30;;
3733;SDS011;1882;52.256;8.874;2023-10-13T08:09:11;12.70;;;6.73;;
3733;SDS011;1882;52.256;8.874;2023-10-13T08:12:12;11.87;;;6.80;;
3733;SDS011;1882;52.256;8.874;2023-10-13T08:15:05;10.17;;;6.33;;
3733;SDS011;1882;52.256;8.874;2023-10-13T08:18:06;10.90;;;6.53;;
3733;SDS011;1882;52.256;8.874;2023-10-13T08:20:49;10.20;;;6.40;;
3733;SDS011;1882;52.256;8.874;2023-10-13T08:23:18;12.60;;;5.90;;
3733;SDS011;1882;52.256;8.874;2023-10-13T08:26:08;9.73;;;6.50;;
3733;SDS011;1882;52.256;8.874;2023-10-13T08:29:00;11.30;;;6.23;;
3733;SDS011;1882;52.256;8.874;2023-10-13T08:31:50;11.90;;;5.80;;
3733;SDS011;1882;52.256;8.874;2023-10-13T08:34:48;9.93;;;6.10;;
3733;SDS011;1882;52.256;8.874;2023-10-13T08:38:51;7.00;;;5.70;;
3733;SDS011;1882;52.256;8.874;2023-10-13T08:41:21;9.00;;;6.17;;
3733;SDS011;1882;52.256;8.874;2023-10-13T08:47:25;11.23;;;6.37;;
3733;SDS011;1882;52.256;8.874;2023-10-13T08:54:46;7.50;;;5.40;;
3733;SDS011;1882;52.256;8.874;2023-10-13T08:58:22;9.33;;;5.40;;
3733;SDS011;1882;52.256;8.874;2023-10-13T09:13:40;11.13;;;5.80;;
3733;SDS011;1882;52.256;8.874;2023-10-13T09:54:56;10.20;;;5.40;;
3733;SDS011;1882;52.256;8.874;2023-10-13T09:59:00;8.20;;;5.07;;
3733;SDS011;1882;52.256;8.874;2023-10-13T10:01:36;11.53;;;5.43;;
3733;SDS011;1882;52.256;8.874;2023-10-13T10:16:38;12.03;;;4.90;;
3733;SDS011;1882;52.256;8.874;2023-10-13T10:24:26;15.20;;;5.63;;
3733;SDS011;1882;52.256;8.874;2023-10-13T10:27:31;15.73;;;6.00;;
3733;SDS011;1882;52.256;8.874;2023-10-13T10:30:04;13.87;;;5.73;;
3733;SDS011;1882;52.256;8.874;2023-10-13T10:32:58;11.10;;;5.73;;
3733;SDS011;1882;52.256;8.874;2023-10-13T10:35:42;8.57;;;6.23;;
3733;SDS011;1882;52.256;8.874;2023-10-13T10:38:27;16.03;;;6.20;;
3733;SDS011;1882;52.256;8.874;2023-10-13T10:40:58;15.00;;;5.80;;
3733;SDS011;1882;52.256;8.874;2023-10-13T10:43:47;13.83;;;5.97;;
3733;SDS011;1882;52.256;8.874;2023-10-13T10:46:27;12.83;;;5.73;;
3733;SDS011;1882;52.256;8.874;2023-10-13T10:49:08;13.07;;;5.97;;
3733;SDS011;1882;52.256;8.874;2023-10-13T10:51:36;16.03;;;5.93;;
3733;SDS011;1882;52.256;8.874;2023-10-13T10:54:18;17.97;;;6.33;;
3733;SDS011;1882;52.256;8.874;2023-10-13T10:56:46;18.20;;;6.23;;
3733;SDS011;1882;52.256;8.874;2023-10-13T10:59:19;17.40;;;6.40;;
3733;SDS011;1882;52.256;8.874;2023-10-13T11:01:46;21.00;;;7.20;;
3733;SDS011;1882;52.256;8.874;2023-10-13T11:04:14;24.10;;;7.27;;
3733;SDS011;1882;52.256;8.874;2023-10-13T11:06:46;11.37;;;6.13;;
3733;SDS011;1882;52.256;8.874;2023-10-13T11:09:14;15.50;;;6.10;;
3733;SDS011;1882;52.256;8.874;2023-10-13T11:11:54;13.67;;;5.93;;
3733;SDS011;1882;52.256;8.874;2023-10-13T11:14:27;18.07;;;5.77;;
3733;SDS011;1882;52.256;8.874;2023-10-13T11:16:55;12.80;;;5.80;;
3733;SDS011;1882;52.256;8.874;2023-10-13T11:19:40;20.90;;;6.73;;
3733;SDS011;1882;52.256;8.874;2023-10-13T11:22:12;18.30;;;7.40;;
3733;SDS011;1882;52.256;8.874;2023-10-13T11:24:56;17.20;;;6.20;;
3733;SDS011;1882;52.256;8.874;2023-10-13T11:27:32;15.13;;;6.50;;
3733;SDS011;1882;52.256;8.874;2023-10-13T11:30:11;13.90;;;6.97;;
3733;SDS011;1882;52.256;8.874;2023-10-13T11:32:42;14.23;;;6.03;;
3733;SDS011;1882;52.256;8.874;2023-10-13T11:35:09;17.03;;;5.97;;
3733;SDS011;1882;52.256;8.874;2023-10-13T11:37:50;14.50;;;5.93;;
3733;SDS011;1882;52.256;8.874;2023-10-13T11:40:23;16.37;;;6.00;;
3733;SDS011;1882;52.256;8.874;2023-10-13T11:43:26;21.80;;;6.77;;
3733;SDS011;1882;52.256;8.874;2023-10-13T11:45:54;14.80;;;6.10;;
3733;SDS011;1882;52.256;8.874;2023-10-13T11:48:36;13.77;;;5.90;;
3733;SDS011;1882;52.256;8.874;2023-10-13T11:51:06;18.43;;;6.47;;
3733;SDS011;1882;52.256;8.874;2023-10-13T11:53:34;17.20;;;6.00;;
3733;SDS011;1882;52.256;8.874;2023-10-13T11:56:02;13.97;;;6.10;;
3733;SDS011;1882;52.256;8.874;2023-10-13T11:58:35;23.33;;;6.10;;
3733;SDS011;1882;52.256;8.874;2023-10-13T12:01:03;15.20;;;6.13;;
3733;SDS011;1882;52.256;8.874;2023-10-13T12:03:44;20.73;;;6.30;;
3733;SDS011;1882;52.256;8.874;2023-10-13T12:06:30;14.10;;;6.20;;
3733;SDS011;1882;52.256;8.874;2023-10-13T12:09:05;16.73;;;5.90;;
3733;SDS011;1882;52.256;8.874;2023-10-13T12:11:42;15.47;;;5.73;;
3733;SDS011;1882;52.256;8.874;2023-10-13T12:14:08;17.83;;;6.60;;
3733;SDS011;1882;52.256;8.874;2023-10-13T12:16:43;16.07;;;5.80;;
3733;SDS011;1882;52.256;8.874;2023-10-13T12:19:24;15.77;;;6.17;;
3733;SDS011;1882;52.256;8.874;2023-10-13T12:21:53;15.10;;;6.07;;
3733;SDS011;1882;52.256;8.874;2023-10-13T12:24:23;19.87;;;5.30;;
3733;SDS011;1882;52.256;8.874;2023-10-13T12:27:03;24.23;;;6.37;;
3733;SDS011;1882;52.256;8.874;2023-10-13T12:29:48;21.13;;;7.00;;
3733;SDS011;1882;52.256;8.874;2023-10-13T12:32:18;19.80;;;6.30;;
3733;SDS011;1882;52.256;8.874;2023-10-13T12:34:57;12.90;;;5.73;;
3733;SDS011;1882;52.256;8.874;2023-10-13T12:37:24;21.37;;;6.97;;
3733;SDS011;1882;52.256;8.874;2023-10-13T12:40:14;13.13;;;6.30;;
3733;SDS011;1882;52.256;8.874;2023-10-13T12:43:03;19.60;;;6.67;;
3733;SDS011;1882;52.256;8.874;2023-10-13T12:46:02;15.30;;;6.40;;
3733;SDS011;1882;52.256;8.874;2023-10-13T12:48:48;16.63;;;6.10;;
3733;SDS011;1882;52.256;8.874;2023-10-13T12:51:33;24.57;;;7.07;;
3733;SDS011;1882;52.256;8.874;2023-10-13T12:54:00;20.20;;;6.80;;
3733;SDS011;1882;52.256;8.874;2023-10-13T12:56:50;16.00;;;6.60;;
3733;SDS011;1882;52.256;8.874;2023-10-13T12:59:23;22.43;;;6.67;;
3733;SDS011;1882;52.256;8.874;2023-10-13T13:01:53;16.70;;;6.50;;
3733;SDS011;1882;52.256;8.874;2023-10-13T13:04:22;20.13;;;7.00;;
3733;SDS011;1882;52.256;8.874;2023-10-13T13:07:08;14.30;;;6.30;;
3733;SDS011;1882;52.256;8.874;2023-10-13T13:09:40;16.50;;;6.97;;
3733;SDS011;1882;52.256;8.874;2023-10-13T13:12:07;16.43;;;6.40;;
3733;SDS011;1882;52.256;8.874;2023-10-13T13:14:36;24.70;;;6.70;;
3733;SDS011;1882;52.256;8.874;2023-10-13T13:17:09;26.10;;;6.87;;
3733;SDS011;1882;52.256;8.874;2023-10-13T13:19:40;14.67;;;6.93;;
3733;SDS011;1882;52.256;8.874;2023-10-13T13:22:08;17.27;;;6.97;;
3733;SDS011;1882;52.256;8.874;2023-10-13T13:24:41;20.50;;;7.23;;
3733;SDS011;1882;52.256;8.874;2023-10-13T13:27:12;16.30;;;7.03;;
3733;SDS011;1882;52.256;8.874;2023-10-13T13:29:40;14.07;;;6.47;;
3733;SDS011;1882;52.256;8.874;2023-10-13T13:32:10;20.73;;;6.53;;
3733;SDS011;1882;52.256;8.874;2023-10-13T13:34:52;20.50;;;6.40;;
3733;SDS011;1882;52.256;8.874;2023-10-13T13:37:31;20.97;;;6.60;;
3733;SDS011;1882;52.256;8.874;2023-10-13T13:39:58;17.60;;;6.07;;
3733;SDS011;1882;52.256;8.874;2023-10-13T13:42:44;13.80;;;6.20;;
3733;SDS011;1882;52.256;8.874;2023-10-13T13:45:14;14.40;;;7.00;;
3733;SDS011;1882;52.256;8.874;2023-10-13T13:47:55;14.70;;;6.40;;
3733;SDS011;1882;52.256;8.874;2023-10-13T13:50:26;16.83;;;6.70;;
3733;SDS011;1882;52.256;8.874;2023-10-13T13:52:59;18.67;;;6.80;;
3733;SDS011;1882;52.256;8.874;2023-10-13T13:55:26;18.83;;;7.10;;
3733;SDS011;1882;52.256;8.874;2023-10-13T13:58:01;15.20;;;6.27;;
3733;SDS011;1882;52.256;8.874;2023-10-13T14:00:31;22.17;;;6.67;;
3733;SDS011;1882;52.256;8.874;2023-10-13T14:03:05;15.70;;;7.13;;
3733;SDS011;1882;52.256;8.874;2023-10-13T14:05:33;17.30;;;6.83;;
3733;SDS011;1882;52.256;8.874;2023-10-13T14:07:59;19.20;;;6.90;;
3733;SDS011;1882;52.256;8.874;2023-10-13T14:10:29;18.10;;;7.07;;
3733;SDS011;1882;52.256;8.874;2023-10-13T14:13:02;23.53;;;6.97;;
3733;SDS011;1882;52.256;8.874;2023-10-13T14:15:54;18.53;;;6.77;;
3733;SDS011;1882;52.256;8.874;2023-10-13T14:18:22;17.33;;;6.43;;
3733;SDS011;1882;52.256;8.874;2023-10-13T14:20:56;20.63;;;6.83;;
3733;SDS011;1882;52.256;8.874;2023-10-13T14:23:23;19.80;;;7.70;;
3733;SDS011;1882;52.256;8.874;2023-10-13T14:25:51;20.17;;;6.73;;
3733;SDS011;1882;52.256;8.874;2023-10-13T14:28:22;15.17;;;6.97;;
3733;SDS011;1882;52.256;8.874;2023-10-13T14:30:48;15.30;;;6.60;;
3733;SDS011;1882;52.256;8.874;2023-10-13T14:33:15;19.37;;;6.80;;
3733;SDS011;1882;52.256;8.874;2023-10-13T14:35:42;23.63;;;6.73;;
3733;SDS011;1882;52.256;8.874;2023-10-13T14:38:13;18.33;;;7.80;;
3733;SDS011;1882;52.256;8.874;2023-10-13T14:40:42;18.00;;;6.73;;
3733;SDS011;1882;52.256;8.874;2023-10-13T14:43:09;20.37;;;6.97;;
3733;SDS011;1882;52.256;8.874;2023-10-13T14:45:36;16.17;;;7.20;;
3733;SDS011;1882;52.256;8.874;2023-10-13T14:48:03;27.33;;;8.00;;
3733;SDS011;1882;52.256;8.874;2023-10-13T14:50:32;20.17;;;7.30;;
3733;SDS011;1882;52.256;8.874;2023-10-13T14:53:01;16.87;;;6.77;;
3733;SDS011;1882;52.256;8.874;2023-10-13T14:55:28;26.67;;;7.43;;
3733;SDS011;1882;52.256;8.874;2023-10-13T14:58:05;18.83;;;6.90;;
3733;SDS011;1882;52.256;8.874;2023-10-13T15:00:34;25.33;;;7.13;;
3733;SDS011;1882;52.256;8.874;2023-10-13T15:03:04;22.33;;;7.37;;
3733;SDS011;1882;52.256;8.874;2023-10-13T15:05:38;27.60;;;7.33;;
3733;SDS011;1882;52.256;8.874;2023-10-13T15:08:09;14.97;;;7.10;;
3733;SDS011;1882;52.256;8.874;2023-10-13T15:11:08;17.93;;;7.07;;
3733;SDS011;1882;52.256;8.874;2023-10-13T15:13:42;18.77;;;7.20;;
3733;SDS011;1882;52.256;8.874;2023-10-13T15:18:41;21.47;;;7.03;;
3733;SDS011;1882;52.256;8.874;2023-10-13T15:21:08;19.40;;;7.07;;
3733;SDS011;1882;52.256;8.874;2023-10-13T15:23:35;17.90;;;7.43;;
3733;SDS011;1882;52.256;8.874;2023-10-13T15:26:18;21.20;;;6.37;;
3733;SDS011;1882;52.256;8.874;2023-10-13T15:28:50;16.27;;;6.70;;
3733;SDS011;1882;52.256;8.874;2023-10-13T15:31:22;23.23;;;6.93;;
3733;SDS011;1882;52.256;8.874;2023-10-13T15:33:52;30.33;;;7.27;;
3733;SDS011;1882;52.256;8.874;2023-10-13T15:36:21;19.50;;;6.17;;
3733;SDS011;1882;52.256;8.874;2023-10-13T15:38:50;17.60;;;6.53;;
3733;SDS011;1882;52.256;8.874;2023-10-13T15:41:25;18.53;;;7.00;;
3733;SDS011;1882;52.256;8.874;2023-10-13T15:43:53;23.77;;;7.17;;
3733;SDS011;1882;52.256;8.874;2023-10-13T15:46:22;15.20;;;6.37;;
3733;SDS011;1882;52.256;8.874;2023-10-13T15:49:09;22.37;;;6.40;;
3733;SDS011;1882;52.256;8.874;2023-10-13T15:51:44;18.33;;;6.80;;
3733;SDS011;1882;52.256;8.874;2023-10-13T15:54:11;17.73;;;7.03;;
3733;SDS011;1882;52.256;8.874;2023-10-13T15:56:49;19.93;;;6.50;;
3733;SDS011;1882;52.256;8.874;2023-10-13T15:59:20;23.10;;;5.90;;
3733;SDS011;1882;52.256;8.874;2023-10-13T16:01:49;20.70;;;6.93;;
3733;SDS011;1882;52.256;8.874;2023-10-13T16:04:21;18.43;;;6.80;;
3733;SDS011;1882;52.256;8.874;2023-10-13T16:06:49;22.83;;;6.20;;
3733;SDS011;1882;52.256;8.874;2023-10-13T16:09:19;15.10;;;6.73;;
3733;SDS011;1882;52.256;8.874;2023-10-13T16:11:50;17.47;;;6.23;;
3733;SDS011;1882;52.256;8.874;2023-10-13T16:14:17;17.50;;;6.83;;
3733;SDS011;1882;52.256;8.874;2023-10-13T16:16:46;23.47;;;6.73;;
3733;SDS011;1882;52.256;8.874;2023-10-13T16:19:20;24.30;;;6.13;;
3733;SDS011;1882;52.256;8.874;2023-10-13T16:21:53;22.13;;;7.23;;
3733;SDS011;1882;52.256;8.874;2023-10-13T16:24:21;20.00;;;6.47;;
3733;SDS011;1882;52.256;8.874;2023-10-13T16:26:51;24.43;;;6.43;;
3733;SDS011;1882;52.256;8.874;2023-10-13T16:29:22;19.83;;;6.73;;
3733;SDS011;1882;52.256;8.874;2023-10-13T16:31:49;22.17;;;6.47;;
3733;SDS011;1882;52.256;8.874;2023-10-13T16:34:16;23.20;;;6.93;;
3733;SDS011;1882;52.256;8.874;2023-10-13T16:36:44;17.20;;;6.23;;
3733;SDS011;1882;52.256;8.874;2023-10-13T16:39:15;19.30;;;6.87;;
3733;SDS011;1882;52.256;8.874;2023-10-13T16:41:43;18.30;;;6.50;;
3733;SDS011;1882;52.256;8.874;2023-10-13T16:44:13;19.03;;;6.30;;
3733;SDS011;1882;52.256;8.874;2023-10-13T16:46:42;20.93;;;6.63;;
3733;SDS011;1882;52.256;8.874;2023-10-13T16:49:09;19.77;;;6.90;;
3733;SDS011;1882;52.256;8.874;2023-10-13T16:51:38;15.70;;;7.00;;
3733;SDS011;1882;52.256;8.874;2023-10-13T16:54:07;17.90;;;7.30;;
3733;SDS011;1882;52.256;8.874;2023-10-13T16:56:36;15.67;;;5.60;;
3733;SDS011;1882;52.256;8.874;2023-10-13T16:59:04;19.60;;;7.20;;
3733;SDS011;1882;52.256;8.874;2023-10-13T17:01:33;21.40;;;6.90;;
3733;SDS011;1882;52.256;8.874;2023-10-13T17:03:59;19.73;;;6.50;;
3733;SDS011;1882;52.256;8.874;2023-10-13T17:06:27;16.90;;;6.80;;
3733;SDS011;1882;52.256;8.874;2023-10-13T17:09:01;16.53;;;6.73;;
3733;SDS011;1882;52.256;8.874;2023-10-13T17:11:30;18.00;;;6.83;;
3733;SDS011;1882;52.256;8.874;2023-10-13T17:13:57;18.43;;;6.50;;
3733;SDS011;1882;52.256;8.874;2023-10-13T17:16:27;19.10;;;7.13;;
3733;SDS011;1882;52.256;8.874;2023-10-13T17:18:57;19.27;;;7.20;;
3733;SDS011;1882;52.256;8.874;2023-10-13T17:21:26;19.07;;;6.47;;
3733;SDS011;1882;52.256;8.874;2023-10-13T17:24:11;15.20;;;6.60;;
3733;SDS011;1882;52.256;8.874;2023-10-13T17:26:39;26.73;;;6.80;;
3733;SDS011;1882;52.256;8.874;2023-10-13T17:29:06;25.00;;;6.07;;
3733;SDS011;1882;52.256;8.874;2023-10-13T17:31:36;21.00;;;6.37;;
3733;SDS011;1882;52.256;8.874;2023-10-13T17:34:04;17.60;;;7.20;;
3733;SDS011;1882;52.256;8.874;2023-10-13T17:36:34;16.80;;;7.00;;
3733;SDS011;1882;52.256;8.874;2023-10-13T17:39:02;22.07;;;6.93;;
3733;SDS011;1882;52.256;8.874;2023-10-13T17:41:30;20.13;;;6.73;;
3733;SDS011;1882;52.256;8.874;2023-10-13T17:43:58;13.70;;;6.07;;
3733;SDS011;1882;52.256;8.874;2023-10-13T17:46:32;19.17;;;6.73;;
3733;SDS011;1882;52.256;8.874;2023-10-13T17:48:58;16.23;;;6.50;;
3733;SDS011;1882;52.256;8.874;2023-10-13T17:51:25;20.60;;;6.70;;
3733;SDS011;1882;52.256;8.874;2023-10-13T17:53:52;32.83;;;6.67;;
3733;SDS011;1882;52.256;8.874;2023-10-13T17:56:27;22.50;;;6.57;;
3733;SDS011;1882;52.256;8.874;2023-10-13T17:58:54;14.33;;;6.20;;
3733;SDS011;1882;52.256;8.874;2023-10-13T18:01:23;21.80;;;6.53;;
3733;SDS011;1882;52.256;8.874;2023-10-13T18:03:50;19.93;;;6.53;;
3733;SDS011;1882;52.256;8.874;2023-10-13T18:06:23;27.50;;;7.40;;
3733;SDS011;1882;52.256;8.874;2023-10-13T18:08:51;19.17;;;6.60;;
3733;SDS011;1882;52.256;8.874;2023-10-13T18:11:23;21.70;;;7.73;;
3733;SDS011;1882;52.256;8.874;2023-10-13T18:13:55;22.00;;;7.80;;